| Record Date MM/DD/YYYY | Record Time HH:MM:SS | Record Julian Date NNN day of the year | Air Temperature Max (Degrees Fahrenheit F) | Time Max Air Temperature HH:MM:SS This is the time of max air temp for the prior hour interval listed for record [Time]. | Air Temperature Min (Degrees Fahrenheit F) | Time Min Air Temperature HH:MM:SS This is the time of min air temp for the prior hour interval listed for record [Time]. | Air Temperature Observed (Degrees Fahrenheit F) This is an instantaneous reading at the record [Time]. | Relative Humidity Max (Percent) | Time Max Relative Humidity HH:MM:SS This is the time of max relative humidity for the prior hour interval listed for record [Time]. | Relative Humidity Min (Percent) | Time Min Relative Humidity HH:MM:SS This is the time of min relative humidity for the prior hour interval listed for record [Time]. | Relative Humidity Observed (Percent) This is an instantaneous reading at the record [Time]. | Precipitation (Inches n.nn) rain fall that occurred during the prior hour interval listed for record [Time]. | Wind Speed (Miles Per Hour) Resultant Speed that occurred during the prior hour interval listed for record [Time]. | Wind Direction (Degrees) Resultant Direction that occurred during the prior hour interval listed for record [Time]. | Solar Radiation (Langley's) that occurred during the prior hour interval listed for record [Time]. | Soil Temperature Average at 2 inch depth (Degrees Fahrenheit F) that occurred during the prior hour interval listed for record [Time]. | Soil Temperature Observed at 2 inch depth (Degrees Fahrenheit F) This is an instantaneous reading at the record [Time]. | Soil Temperature Average at 4 inch depth (Degrees Fahrenheit F) that occurred during the prior hour interval listed for record [Time]. | Soil Temperature Observed at 4 inch depth (Degrees Fahrenheit F) This is an instantaneous reading at the record [Time]. |
|---|---|---|---|---|---|---|---|---|---|---|---|---|---|---|---|---|---|---|---|---|
| 05/01/2026 | 0:00:00 | 121 | 68 | 23:00:01 | 67 | 0:00:00 | 67 | 93 | 23:57:03 | 93 | 23:29:02 | 93.3 | 0 | 2.7 | 17 | 0 | 75 | 75 | 76 | 76 |
| 05/01/2026 | 1:00:00 | 121 | 67 | 0:00:03 | 66 | 0:59:04 | 66 | 94 | 0:00:03 | 92 | 0:59:05 | 91.6 | 0 | 3.3 | 27 | 0 | 75 | 75 | 75 | 75 |
| 05/01/2026 | 2:00:00 | 121 | 66 | 1:00:04 | 65 | 1:58:02 | 65 | 92 | 1:00:05 | 91 | 1:52:03 | 91 | 0 | 2.8 | 20 | 0 | 75 | 75 | 75 | 75 |
| 05/01/2026 | 3:00:00 | 121 | 65 | 2:12:02 | 65 | 2:59:02 | 65 | 92 | 2:35:03 | 91 | 2:02:01 | 91.6 | 0 | 2.8 | 21 | 0 | 75 | 74 | 75 | 75 |
| 05/01/2026 | 4:00:00 | 121 | 65 | 3:54:02 | 64 | 3:28:04 | 65 | 92 | 3:12:00 | 90 | 3:58:02 | 90.2 | 0 | 2.8 | 29 | 0 | 74 | 74 | 75 | 75 |
| 05/01/2026 | 5:00:00 | 121 | 65 | 4:01:01 | 64 | 4:48:00 | 65 | 90 | 4:01:02 | 89 | 4:35:05 | 89.2 | 0 | 2.6 | 31 | 0 | 74 | 74 | 75 | 74 |
| 05/01/2026 | 6:00:00 | 121 | 65 | 5:00:02 | 64 | 5:57:01 | 64 | 91 | 5:58:05 | 89 | 5:01:04 | 90.8 | 0 | 2.8 | 28 | 1 | 74 | 74 | 74 | 74 |
| 05/01/2026 | 7:00:00 | 121 | 64 | 6:18:03 | 64 | 6:39:01 | 64 | 91 | 6:43:01 | 90 | 6:21:04 | 90.6 | 0 | 3.3 | 28 | 4 | 74 | 74 | 74 | 74 |
| 05/01/2026 | 8:00:00 | 121 | 65 | 7:55:02 | 64 | 7:07:05 | 65 | 91 | 7:13:03 | 89 | 7:58:01 | 89.1 | 0 | 3.8 | 29 | 8 | 73 | 73 | 74 | 74 |
| 05/01/2026 | 9:00:00 | 121 | 65 | 8:56:04 | 64 | 8:04:04 | 65 | 89 | 8:09:04 | 87 | 8:49:04 | 87.5 | 0 | 4.1 | 24 | 9 | 73 | 73 | 74 | 74 |
| 05/01/2026 | 10:00:00 | 121 | 66 | 9:43:00 | 65 | 9:49:05 | 66 | 88 | 9:27:04 | 86 | 9:59:05 | 85.9 | 0 | 4.2 | 26 | 13 | 73 | 73 | 74 | 74 |
| 05/01/2026 | 11:00:00 | 121 | 66 | 10:02:05 | 64 | 10:47:04 | 64 | 88 | 10:22:04 | 86 | 10:11:01 | 86.6 | 0 | 3.5 | 20 | 7 | 74 | 74 | 74 | 74 |
| 05/01/2026 | 12:00:00 | 121 | 65 | 11:53:03 | 64 | 11:27:01 | 65 | 90 | 11:29:02 | 86 | 11:59:04 | 86.1 | 0 | 4.0 | 22 | 11 | 74 | 74 | 74 | 74 |
| 05/01/2026 | 13:00:00 | 121 | 65 | 12:12:01 | 64 | 12:47:04 | 64 | 90 | 12:57:05 | 86 | 12:02:00 | 89.4 | 0 | 5.2 | 27 | 10 | 74 | 73 | 74 | 74 |
| 05/01/2026 | 14:00:00 | 121 | 64 | 13:10:03 | 64 | 13:21:02 | 64 | 90 | 13:24:03 | 86 | 13:58:05 | 86.3 | 0 | 5.4 | 30 | 9 | 73 | 73 | 74 | 74 |
| 05/01/2026 | 15:00:00 | 121 | 64 | 14:08:01 | 62 | 14:55:03 | 62 | 91 | 14:58:01 | 85 | 14:17:05 | 91.2 | 0.07 | 4.7 | 22 | 4 | 73 | 73 | 74 | 74 |
| 05/01/2026 | 16:00:00 | 121 | 63 | 15:11:01 | 59 | 16:00:00 | 59 | 94 | 15:59:02 | 91 | 15:00:03 | 93.5 | 0.38 | 4.8 | 20 | 2 | 73 | 73 | 74 | 73 |
| 05/01/2026 | 17:00:00 | 121 | 60 | 16:00:01 | 57 | 16:58:01 | 58 | 95 | 16:40:05 | 93 | 16:04:02 | 94.1 | 0.18 | 4.9 | 19 | 1 | 72 | 71 | 73 | 72 |
| 05/01/2026 | 18:00:00 | 121 | 58 | 17:06:00 | 57 | 17:57:01 | 57 | 94 | 17:01:01 | 93 | 17:34:03 | 93.9 | 0.04 | 4.7 | 24 | 0 | 71 | 71 | 72 | 72 |
| 05/01/2026 | 19:00:00 | 121 | 57 | 18:01:03 | 56 | 18:53:02 | 56 | 95 | 18:51:04 | 94 | 18:00:02 | 94.5 | 0.22 | 4.4 | 26 | 0 | 71 | 70 | 72 | 72 |
| 05/01/2026 | 20:00:00 | 121 | 56 | 19:01:05 | 55 | 19:40:02 | 55 | 95 | 19:56:04 | 94 | 19:18:03 | 95 | 0.27 | 3.2 | 29 | 0 | 70 | 70 | 71 | 71 |
| 05/01/2026 | 21:00:00 | 121 | 56 | 20:57:05 | 55 | 20:02:01 | 56 | 96 | 20:49:03 | 95 | 20:12:04 | 95.5 | 0.11 | 3.8 | 44 | 0 | 69 | 69 | 71 | 70 |
| 05/01/2026 | 22:00:00 | 121 | 56 | 21:28:04 | 56 | 21:15:03 | 56 | 96 | 21:02:04 | 95 | 21:56:00 | 94.9 | 0.02 | 4.3 | 31 | 0 | 69 | 69 | 70 | 70 |
| 05/01/2026 | 23:00:00 | 121 | 56 | 22:25:00 | 56 | 22:31:02 | 56 | 96 | 22:40:05 | 95 | 22:03:05 | 95.4 | 0.2 | 3.7 | 27 | 0 | 69 | 68 | 70 | 70 |
| 05/02/2026 | 0:00:00 | 122 | 56 | 23:11:05 | 56 | 23:05:03 | 56 | 96 | 23:58:04 | 95 | 23:04:04 | 95.7 | 0.16 | 4.0 | 24 | 0 | 68 | 68 | 70 | 69 |
| 05/02/2026 | 1:00:00 | 122 | 56 | 0:11:00 | 54 | 0:57:00 | 54 | 96 | 0:40:00 | 95 | 0:56:04 | 95.5 | 0.13 | 3.6 | 15 | 0 | 68 | 68 | 69 | 69 |
| 05/02/2026 | 2:00:00 | 122 | 54 | 1:03:01 | 54 | 1:51:02 | 54 | 96 | 1:20:04 | 95 | 1:50:05 | 95.3 | 0.09 | 4.3 | 20 | 0 | 68 | 67 | 69 | 69 |
| 05/02/2026 | 3:00:00 | 122 | 54 | 2:57:01 | 54 | 2:00:05 | 54 | 96 | 2:02:02 | 95 | 2:59:00 | 94.8 | 0.04 | 4.4 | 18 | 0 | 67 | 67 | 69 | 68 |
| 05/02/2026 | 4:00:00 | 122 | 54 | 3:58:00 | 54 | 3:07:04 | 54 | 95 | 3:02:01 | 94 | 3:58:05 | 93.8 | 0.01 | 5.2 | 24 | 0 | 67 | 67 | 68 | 68 |
| 05/02/2026 | 5:00:00 | 122 | 55 | 4:56:00 | 54 | 4:00:03 | 54 | 94 | 4:01:00 | 93 | 4:59:04 | 93 | 0 | 4.5 | 22 | 0 | 67 | 67 | 68 | 68 |
| 05/02/2026 | 6:00:00 | 122 | 55 | 5:32:05 | 54 | 5:53:01 | 54 | 93 | 5:04:04 | 92 | 5:42:03 | 92.2 | 0 | 4.9 | 22 | 1 | 67 | 67 | 68 | 68 |
| 05/02/2026 | 7:00:00 | 122 | 55 | 6:59:04 | 54 | 6:09:01 | 55 | 92 | 6:29:03 | 90 | 6:58:01 | 90.4 | 0 | 4.1 | 23 | 6 | 67 | 67 | 68 | 68 |
| 05/02/2026 | 8:00:00 | 122 | 59 | 7:58:04 | 55 | 7:00:00 | 59 | 91 | 7:00:02 | 84 | 8:00:00 | 84.1 | 0 | 3.9 | 20 | 22 | 67 | 67 | 68 | 68 |
| 05/02/2026 | 9:00:00 | 122 | 62 | 8:59:05 | 58 | 8:20:00 | 62 | 85 | 8:27:02 | 78 | 8:57:02 | 78.91 | 0 | 5.2 | 19 | 35 | 67 | 68 | 68 | 68 |
| 05/02/2026 | 10:00:00 | 122 | 65 | 10:00:00 | 62 | 9:03:03 | 65 | 79 | 9:05:00 | 69 | 9:58:03 | 70.73 | 0 | 4.2 | 15 | 57 | 68 | 69 | 69 | 69 |
| 05/02/2026 | 11:00:00 | 122 | 69 | 10:49:01 | 65 | 10:00:00 | 69 | 71 | 10:00:04 | 58 | 10:57:03 | 58.71 | 0 | 4.8 | 18 | 65 | 69 | 70 | 69 | 69 |
| 05/02/2026 | 12:00:00 | 122 | 71 | 11:47:05 | 68 | 11:01:04 | 71 | 63 | 11:03:01 | 54 | 11:48:00 | 54.88 | 0 | 5.0 | 14 | 65 | 70 | 71 | 70 | 70 |
| 05/02/2026 | 13:00:00 | 122 | 74 | 12:55:01 | 70 | 12:08:04 | 73 | 58 | 12:00:03 | 48 | 12:56:04 | 50.78 | 0 | 5.0 | 11 | 69 | 71 | 72 | 71 | 71 |
| 05/02/2026 | 14:00:00 | 122 | 74 | 13:39:00 | 72 | 13:09:03 | 73 | 53 | 13:00:02 | 41 | 13:54:00 | 42.56 | 0 | 4.4 | 10 | 64 | 73 | 73 | 71 | 72 |
| 05/02/2026 | 15:00:00 | 122 | 74 | 14:32:05 | 73 | 14:17:03 | 73 | 45 | 14:07:04 | 34 | 14:51:01 | 36.15 | 0 | 4.8 | 12 | 56 | 73 | 74 | 72 | 73 |
| 05/02/2026 | 16:00:00 | 122 | 74 | 15:52:00 | 72 | 15:09:01 | 73 | 41 | 15:31:05 | 34 | 15:15:04 | 34.89 | 0 | 5.4 | 18 | 40 | 74 | 74 | 73 | 73 |
| 05/02/2026 | 17:00:00 | 122 | 74 | 16:13:03 | 72 | 16:52:01 | 72 | 39 | 16:12:03 | 34 | 16:14:01 | 36.84 | 0 | 4.1 | 13 | 28 | 74 | 74 | 73 | 73 |
| 05/02/2026 | 18:00:00 | 122 | 72 | 17:02:05 | 69 | 17:58:04 | 69 | 40 | 17:54:01 | 34 | 17:14:05 | 39.28 | 0 | 3.5 | 15 | 10 | 73 | 73 | 73 | 73 |
| 05/02/2026 | 19:00:00 | 122 | 69 | 18:00:00 | 65 | 18:59:03 | 65 | 50 | 18:58:03 | 39 | 18:02:00 | 49.04 | 0 | 2.1 | 24 | 0 | 73 | 73 | 73 | 73 |
| 05/02/2026 | 20:00:00 | 122 | 65 | 19:00:00 | 62 | 19:54:03 | 62 | 56 | 19:59:03 | 49 | 19:00:00 | 55.99 | 0 | 0.8 | 28 | 0 | 72 | 72 | 72 | 72 |
| 05/02/2026 | 21:00:00 | 122 | 62 | 20:00:00 | 60 | 20:55:05 | 60 | 60 | 20:54:03 | 55 | 20:11:05 | 59.52 | 0 | 0.6 | 22 | 0 | 72 | 71 | 72 | 72 |
| 05/02/2026 | 22:00:00 | 122 | 60 | 21:00:04 | 56 | 21:28:01 | 58 | 69 | 21:29:02 | 59 | 21:04:04 | 66.89 | 0 | 0.3 | 34 | 0 | 71 | 71 | 72 | 71 |
| 05/02/2026 | 23:00:00 | 122 | 58 | 22:15:01 | 56 | 22:56:01 | 56 | 69 | 22:27:03 | 63 | 22:15:02 | 68.44 | 0 | 1.0 | 30 | 0 | 70 | 70 | 71 | 71 |
| 05/03/2026 | 0:00:00 | 123 | 56 | 23:00:02 | 53 | 23:45:05 | 53 | 79 | 23:42:04 | 68 | 23:01:02 | 78.15 | 0 | 0.0 | 9 | 0 | 70 | 70 | 71 | 71 |
| 05/03/2026 | 1:00:00 | 123 | 54 | 0:35:00 | 52 | 0:59:05 | 52 | 82 | 0:59:05 | 77 | 0:44:00 | 81.5 | 0 | 0.1 | 12 | 0 | 69 | 69 | 70 | 70 |
| 05/03/2026 | 2:00:00 | 123 | 52 | 1:00:04 | 50 | 1:47:00 | 51 | 88 | 1:57:00 | 82 | 1:00:01 | 87.4 | 0 | 0.1 | 325 | 0 | 69 | 69 | 70 | 70 |
| 05/03/2026 | 3:00:00 | 123 | 52 | 2:18:04 | 51 | 2:47:02 | 51 | 88 | 2:49:04 | 86 | 2:11:03 | 88 | 0 | 0.3 | 16 | 0 | 69 | 68 | 70 | 69 |
| 05/03/2026 | 4:00:00 | 123 | 51 | 3:01:05 | 49 | 3:57:02 | 49 | 90 | 3:59:05 | 87 | 3:04:03 | 90.1 | 0 | 0.1 | 332 | 0 | 68 | 68 | 69 | 69 |
| 05/03/2026 | 5:00:00 | 123 | 50 | 4:53:02 | 49 | 4:08:04 | 50 | 93 | 4:52:02 | 90 | 4:00:02 | 92.6 | 0 | 0.1 | 29 | 0 | 68 | 68 | 69 | 69 |
| 05/03/2026 | 6:00:00 | 123 | 52 | 5:59:03 | 49 | 5:09:04 | 52 | 94 | 5:41:05 | 92 | 6:00:00 | 92.1 | 0 | 0.4 | 7 | 2 | 67 | 67 | 69 | 69 |
| 05/03/2026 | 7:00:00 | 123 | 59 | 6:56:04 | 52 | 6:00:00 | 59 | 92 | 6:00:01 | 66 | 6:57:03 | 66.71 | 0 | 1.0 | 357 | 16 | 67 | 67 | 68 | 68 |
| 05/03/2026 | 8:00:00 | 123 | 64 | 7:58:03 | 59 | 7:00:00 | 64 | 68 | 7:06:02 | 55 | 7:59:01 | 54.85 | 0 | 2.2 | 8 | 33 | 67 | 68 | 68 | 68 |
| 05/03/2026 | 9:00:00 | 123 | 70 | 8:59:02 | 63 | 8:01:02 | 70 | 58 | 8:08:02 | 44 | 8:59:05 | 44.22 | 0 | 2.4 | 8 | 47 | 68 | 68 | 69 | 69 |
| 05/03/2026 | 10:00:00 | 123 | 73 | 9:55:03 | 69 | 9:01:02 | 73 | 50 | 9:03:04 | 32 | 9:34:02 | 36.32 | 0 | 3.1 | 38 | 60 | 69 | 69 | 69 | 69 |
| 05/03/2026 | 11:00:00 | 123 | 75 | 10:53:00 | 72 | 10:02:01 | 74 | 42 | 10:57:02 | 30 | 10:54:00 | 36.61 | 0 | 2.4 | 24 | 69 | 70 | 71 | 70 | 70 |
| 05/03/2026 | 12:00:00 | 123 | 75 | 11:30:03 | 73 | 11:14:03 | 75 | 43 | 11:23:00 | 29 | 11:55:02 | 31.11 | 0 | 3.2 | 21 | 72 | 72 | 72 | 71 | 71 |
| 05/03/2026 | 13:00:00 | 123 | 76 | 13:00:00 | 74 | 12:13:03 | 76 | 44 | 12:26:03 | 30 | 12:13:00 | 41.82 | 0 | 2.1 | 136 | 72 | 73 | 74 | 72 | 72 |
| 05/03/2026 | 14:00:00 | 123 | 78 | 13:46:00 | 75 | 13:53:05 | 75 | 45 | 13:59:01 | 30 | 13:24:04 | 39.87 | 0 | 2.6 | 253 | 66 | 74 | 75 | 73 | 73 |
| 05/03/2026 | 15:00:00 | 123 | 76 | 14:03:03 | 74 | 14:59:00 | 74 | 47 | 14:01:04 | 35 | 14:06:01 | 39.47 | 0 | 4.1 | 216 | 57 | 75 | 76 | 74 | 74 |
| 05/03/2026 | 16:00:00 | 123 | 76 | 15:51:02 | 74 | 15:34:01 | 74 | 48 | 15:38:04 | 38 | 15:28:03 | 41.73 | 0 | 3.6 | 207 | 43 | 76 | 76 | 74 | 74 |
| 05/03/2026 | 17:00:00 | 123 | 75 | 16:04:02 | 72 | 16:59:05 | 72 | 46 | 16:02:04 | 39 | 16:05:03 | 43.45 | 0 | 4.3 | 209 | 22 | 76 | 76 | 74 | 74 |
| 05/03/2026 | 18:00:00 | 123 | 72 | 17:07:03 | 69 | 18:00:00 | 69 | 50 | 18:00:00 | 43 | 17:00:02 | 50.42 | 0 | 3.6 | 219 | 11 | 75 | 75 | 74 | 74 |
| 05/03/2026 | 19:00:00 | 123 | 69 | 18:00:00 | 66 | 19:00:00 | 66 | 58 | 18:58:03 | 47 | 18:06:05 | 57.63 | 0 | 1.8 | 219 | 1 | 75 | 74 | 74 | 74 |
| 05/03/2026 | 20:00:00 | 123 | 66 | 19:00:00 | 62 | 19:25:03 | 63 | 68 | 19:28:03 | 58 | 19:00:00 | 62.09 | 0 | 0.1 | 223 | 0 | 74 | 73 | 74 | 73 |
| 05/03/2026 | 21:00:00 | 123 | 63 | 20:00:02 | 60 | 20:57:00 | 61 | 71 | 20:54:05 | 62 | 20:00:02 | 70.08 | 0 | 0.2 | 198 | 0 | 73 | 73 | 73 | 73 |
| 05/03/2026 | 22:00:00 | 123 | 62 | 21:44:00 | 60 | 21:11:02 | 61 | 74 | 21:36:02 | 70 | 21:01:01 | 73.76 | 0 | 0.2 | 228 | 0 | 72 | 72 | 73 | 72 |
| 05/03/2026 | 23:00:00 | 123 | 62 | 22:30:05 | 60 | 22:59:03 | 60 | 78 | 23:00:00 | 73 | 22:35:00 | 77.64 | 0 | 0.1 | 285 | 0 | 72 | 71 | 72 | 72 |
| 05/04/2026 | 0:00:00 | 124 | 60 | 23:22:02 | 59 | 23:42:00 | 59 | 83 | 23:56:05 | 77 | 23:14:03 | 82 | 0 | 0.0 | 302 | 0 | 71 | 71 | 72 | 72 |
| 05/04/2026 | 1:00:00 | 124 | 59 | 0:00:00 | 57 | 0:53:00 | 58 | 88 | 0:55:00 | 82 | 0:11:00 | 87.6 | 0 | 0.4 | 338 | 0 | 71 | 71 | 71 | 71 |
| 05/04/2026 | 2:00:00 | 124 | 58 | 1:11:03 | 56 | 1:48:03 | 56 | 90 | 1:53:00 | 87 | 1:03:00 | 89.5 | 0 | 0.2 | 18 | 0 | 70 | 70 | 71 | 71 |
| 05/04/2026 | 3:00:00 | 124 | 56 | 2:27:04 | 56 | 2:14:05 | 56 | 91 | 2:54:04 | 90 | 2:00:01 | 90.4 | 0 | 0.2 | 5 | 0 | 70 | 70 | 71 | 71 |
| 05/04/2026 | 4:00:00 | 124 | 56 | 3:00:00 | 54 | 3:30:04 | 55 | 92 | 3:46:00 | 90 | 3:02:01 | 91 | 0 | 0.1 | 3 | 0 | 70 | 69 | 70 | 70 |
| 05/04/2026 | 5:00:00 | 124 | 55 | 4:01:05 | 53 | 4:44:04 | 54 | 93 | 5:00:00 | 91 | 4:08:01 | 92.5 | 0 | 0.1 | 192 | 0 | 69 | 69 | 70 | 70 |
| 05/04/2026 | 6:00:00 | 124 | 56 | 6:00:00 | 54 | 5:01:04 | 56 | 93 | 5:37:00 | 92 | 5:01:03 | 92.7 | 0 | 0.1 | 296 | 2 | 69 | 69 | 70 | 70 |
| 05/04/2026 | 7:00:00 | 124 | 65 | 6:59:03 | 56 | 6:00:00 | 65 | 93 | 6:05:00 | 70 | 6:58:03 | 70.06 | 0 | 0.4 | 226 | 16 | 69 | 69 | 70 | 70 |
| 05/04/2026 | 8:00:00 | 124 | 70 | 7:59:05 | 65 | 7:00:01 | 70 | 72 | 7:11:03 | 62 | 7:57:03 | 63.23 | 0 | 0.7 | 292 | 33 | 69 | 69 | 69 | 70 |
| 05/04/2026 | 9:00:00 | 124 | 73 | 8:41:00 | 70 | 8:00:00 | 73 | 65 | 8:06:00 | 53 | 8:58:03 | 53.75 | 0 | 1.4 | 275 | 47 | 69 | 70 | 70 | 70 |
| 05/04/2026 | 10:00:00 | 124 | 76 | 9:42:04 | 73 | 9:00:00 | 75 | 59 | 9:02:03 | 37 | 9:49:02 | 41.42 | 0 | 1.8 | 223 | 60 | 71 | 71 | 70 | 71 |
| 05/04/2026 | 11:00:00 | 124 | 77 | 10:53:05 | 75 | 10:24:05 | 76 | 49 | 10:17:05 | 34 | 10:55:05 | 41.34 | 0 | 2.4 | 190 | 69 | 72 | 73 | 71 | 72 |
| 05/04/2026 | 12:00:00 | 124 | 78 | 11:17:05 | 75 | 11:47:05 | 76 | 50 | 11:14:01 | 34 | 11:03:00 | 39.1 | 0 | 2.7 | 200 | 73 | 73 | 74 | 72 | 73 |
| 05/04/2026 | 13:00:00 | 124 | 77 | 12:14:04 | 74 | 12:51:00 | 76 | 51 | 12:37:02 | 37 | 12:05:00 | 44.57 | 0 | 3.9 | 211 | 72 | 75 | 75 | 73 | 74 |
| 05/04/2026 | 14:00:00 | 124 | 76 | 13:10:00 | 74 | 13:51:01 | 76 | 54 | 13:57:02 | 39 | 13:04:05 | 48.16 | 0 | 4.5 | 217 | 67 | 76 | 76 | 74 | 74 |
| 05/04/2026 | 15:00:00 | 124 | 76 | 14:37:02 | 74 | 14:15:04 | 75 | 55 | 14:36:03 | 46 | 14:59:05 | 46.2 | 0 | 3.9 | 209 | 57 | 76 | 77 | 75 | 75 |
| 05/04/2026 | 16:00:00 | 124 | 75 | 15:55:04 | 74 | 15:42:05 | 74 | 54 | 15:10:04 | 44 | 15:21:05 | 46.91 | 0 | 4.5 | 217 | 43 | 77 | 77 | 75 | 75 |
| 05/04/2026 | 17:00:00 | 124 | 76 | 16:06:02 | 73 | 16:46:00 | 74 | 52 | 16:03:03 | 45 | 16:09:03 | 49.03 | 0 | 3.8 | 217 | 23 | 77 | 76 | 75 | 75 |
| 05/04/2026 | 18:00:00 | 124 | 74 | 17:10:03 | 71 | 17:59:03 | 71 | 55 | 17:53:04 | 47 | 17:11:01 | 52.61 | 0 | 2.3 | 197 | 11 | 76 | 76 | 75 | 75 |
| 05/04/2026 | 19:00:00 | 124 | 71 | 18:00:00 | 67 | 18:51:04 | 67 | 61 | 18:54:01 | 53 | 18:00:00 | 60.56 | 0 | 1.0 | 221 | 0 | 75 | 75 | 75 | 75 |
| 05/04/2026 | 20:00:00 | 124 | 68 | 19:17:05 | 65 | 19:47:03 | 66 | 65 | 20:00:00 | 60 | 19:17:02 | 65.49 | 0 | 0.6 | 224 | 0 | 75 | 74 | 74 | 74 |
| 05/04/2026 | 21:00:00 | 124 | 67 | 20:38:00 | 65 | 20:03:02 | 66 | 67 | 20:52:03 | 64 | 20:13:03 | 65.86 | 0 | 0.4 | 243 | 0 | 74 | 73 | 74 | 74 |
| 05/04/2026 | 22:00:00 | 124 | 68 | 21:46:00 | 66 | 21:00:03 | 66 | 68 | 22:00:00 | 65 | 21:08:00 | 68.27 | 0 | 0.4 | 227 | 0 | 73 | 73 | 73 | 73 |
| 05/04/2026 | 23:00:00 | 124 | 67 | 22:59:01 | 66 | 22:09:05 | 67 | 69 | 22:44:03 | 68 | 22:15:01 | 68.76 | 0 | 0.6 | 229 | 0 | 73 | 72 | 73 | 73 |
| 05/05/2026 | 0:00:00 | 125 | 68 | 23:59:02 | 66 | 23:39:04 | 68 | 70 | 23:35:05 | 67 | 23:59:04 | 67.36 | 0 | 0.8 | 226 | 0 | 72 | 72 | 73 | 72 |
| 05/05/2026 | 1:00:00 | 125 | 68 | 0:00:02 | 66 | 0:44:03 | 66 | 72 | 0:59:05 | 67 | 0:01:01 | 71.85 | 0 | 0.5 | 234 | 0 | 72 | 72 | 72 | 72 |
| 05/05/2026 | 2:00:00 | 125 | 67 | 1:11:00 | 65 | 1:43:01 | 66 | 74 | 1:43:04 | 71 | 1:12:02 | 73.15 | 0 | 0.6 | 236 | 0 | 72 | 71 | 72 | 72 |
| 05/05/2026 | 3:00:00 | 125 | 66 | 2:01:00 | 65 | 2:52:02 | 65 | 76 | 2:38:04 | 73 | 2:02:02 | 75.86 | 0 | 0.2 | 234 | 0 | 71 | 71 | 72 | 72 |
| 05/05/2026 | 4:00:00 | 125 | 65 | 3:00:00 | 59 | 3:59:02 | 59 | 87 | 3:51:05 | 76 | 3:00:00 | 86.5 | 0 | 0.5 | 336 | 0 | 71 | 71 | 72 | 71 |
| 05/05/2026 | 5:00:00 | 125 | 59 | 4:02:02 | 58 | 4:52:02 | 58 | 87 | 4:53:05 | 86 | 4:11:03 | 86.6 | 0 | 0.0 | 12 | 0 | 71 | 70 | 71 | 71 |
| 05/05/2026 | 6:00:00 | 125 | 60 | 6:00:00 | 58 | 5:21:01 | 60 | 87 | 5:23:00 | 84 | 6:00:00 | 83.6 | 0 | 0.6 | 21 | 2 | 70 | 70 | 71 | 71 |
| 05/05/2026 | 7:00:00 | 125 | 71 | 7:00:00 | 60 | 6:00:04 | 71 | 84 | 6:04:03 | 70 | 6:59:05 | 70.25 | 0 | 0.9 | 0 | 12 | 70 | 70 | 71 | 71 |
| 05/05/2026 | 8:00:00 | 125 | 74 | 7:59:05 | 71 | 7:00:01 | 74 | 70 | 7:00:03 | 63 | 7:56:01 | 65.12 | 0 | 3.6 | 213 | 26 | 70 | 71 | 71 | 71 |
| 05/05/2026 | 9:00:00 | 125 | 76 | 8:22:02 | 74 | 8:03:01 | 75 | 67 | 8:04:04 | 62 | 8:22:05 | 63.48 | 0 | 4.1 | 216 | 38 | 71 | 71 | 71 | 71 |
| 05/05/2026 | 10:00:00 | 125 | 78 | 9:56:02 | 75 | 9:01:04 | 77 | 69 | 9:48:04 | 61 | 9:35:04 | 64.08 | 0 | 4.0 | 209 | 50 | 72 | 72 | 71 | 72 |
| 05/05/2026 | 11:00:00 | 125 | 78 | 10:39:02 | 76 | 10:28:05 | 77 | 70 | 10:13:05 | 62 | 10:08:05 | 64.9 | 0 | 3.9 | 207 | 58 | 73 | 73 | 72 | 72 |
| 05/05/2026 | 12:00:00 | 125 | 79 | 11:40:05 | 76 | 11:13:04 | 77 | 71 | 11:08:03 | 61 | 11:42:04 | 68.52 | 0 | 3.8 | 200 | 64 | 74 | 74 | 73 | 73 |
| 05/05/2026 | 13:00:00 | 125 | 80 | 12:44:03 | 77 | 12:10:00 | 78 | 71 | 12:49:05 | 61 | 12:04:04 | 64.32 | 0 | 3.8 | 195 | 68 | 75 | 76 | 74 | 74 |
| 05/05/2026 | 14:00:00 | 125 | 80 | 13:13:00 | 77 | 13:01:01 | 79 | 71 | 13:02:02 | 62 | 13:17:01 | 67.87 | 0 | 3.1 | 164 | 61 | 76 | 77 | 74 | 75 |
| 05/05/2026 | 15:00:00 | 125 | 79 | 14:20:04 | 77 | 14:58:05 | 77 | 72 | 14:48:03 | 64 | 14:00:04 | 70.09 | 0 | 3.2 | 172 | 50 | 77 | 77 | 75 | 75 |
| 05/05/2026 | 16:00:00 | 125 | 79 | 15:09:04 | 75 | 15:56:02 | 75 | 74 | 15:49:00 | 67 | 15:10:01 | 72.07 | 0 | 2.8 | 183 | 27 | 77 | 77 | 76 | 76 |
| 05/05/2026 | 17:00:00 | 125 | 76 | 16:22:01 | 75 | 16:59:04 | 75 | 75 | 16:58:02 | 70 | 16:22:05 | 74.52 | 0 | 2.8 | 203 | 14 | 77 | 77 | 76 | 76 |
| 05/05/2026 | 18:00:00 | 125 | 76 | 17:19:03 | 74 | 17:59:03 | 74 | 77 | 17:57:02 | 73 | 17:20:02 | 76.61 | 0 | 2.2 | 194 | 8 | 77 | 77 | 76 | 76 |
| 05/05/2026 | 19:00:00 | 125 | 74 | 18:00:00 | 73 | 18:51:03 | 73 | 81 | 19:00:00 | 77 | 18:03:00 | 80.7 | 0 | 1.5 | 205 | 1 | 76 | 76 | 76 | 75 |
| 05/05/2026 | 20:00:00 | 125 | 73 | 19:03:04 | 72 | 19:30:02 | 73 | 83 | 19:55:01 | 81 | 19:00:00 | 83.3 | 0 | 1.0 | 166 | 0 | 76 | 75 | 75 | 75 |
| 05/05/2026 | 21:00:00 | 125 | 73 | 20:14:02 | 72 | 20:45:04 | 72 | 86 | 20:59:05 | 83 | 20:00:04 | 85.5 | 0 | 1.1 | 166 | 0 | 75 | 75 | 75 | 75 |
| 05/05/2026 | 22:00:00 | 125 | 72 | 21:04:00 | 72 | 21:56:04 | 72 | 87 | 21:57:01 | 85 | 21:02:05 | 86.9 | 0 | 1.2 | 148 | 0 | 75 | 75 | 75 | 75 |
| 05/05/2026 | 23:00:00 | 125 | 72 | 22:54:02 | 72 | 22:25:04 | 72 | 87 | 22:30:05 | 85 | 22:56:01 | 85.6 | 0 | 1.3 | 179 | 0 | 74 | 74 | 74 | 74 |
| 05/06/2026 | 0:00:00 | 126 | 73 | 23:47:03 | 72 | 23:15:04 | 73 | 87 | 23:43:00 | 86 | 23:03:01 | 86.2 | 0 | 1.6 | 189 | 0 | 74 | 74 | 74 | 74 |
| 05/06/2026 | 1:00:00 | 126 | 73 | 0:22:02 | 72 | 0:59:00 | 72 | 87 | 0:49:05 | 86 | 0:01:05 | 87.2 | 0 | 1.8 | 192 | 0 | 74 | 74 | 74 | 74 |
| 05/06/2026 | 2:00:00 | 126 | 73 | 1:58:01 | 72 | 1:17:02 | 73 | 88 | 1:40:05 | 87 | 1:03:00 | 87.3 | 0 | 1.8 | 204 | 0 | 74 | 74 | 74 | 74 |
| 05/06/2026 | 3:00:00 | 126 | 73 | 2:34:02 | 73 | 2:58:00 | 73 | 89 | 2:59:03 | 87 | 2:03:03 | 88.8 | 0 | 2.0 | 209 | 0 | 74 | 74 | 74 | 74 |
| 05/06/2026 | 4:00:00 | 126 | 74 | 3:55:04 | 73 | 3:08:01 | 74 | 89 | 3:12:03 | 89 | 3:05:00 | 89 | 0 | 3.0 | 214 | 0 | 74 | 73 | 74 | 74 |
| 05/06/2026 | 5:00:00 | 126 | 74 | 4:58:05 | 74 | 4:00:02 | 74 | 90 | 4:42:02 | 89 | 4:09:01 | 89.6 | 0 | 3.7 | 213 | 0 | 73 | 73 | 74 | 74 |
| 05/06/2026 | 6:00:00 | 126 | 74 | 5:50:03 | 74 | 5:01:02 | 74 | 90 | 5:23:04 | 90 | 5:02:00 | 89.8 | 0 | 3.2 | 213 | 0 | 73 | 73 | 73 | 73 |
| 05/06/2026 | 7:00:00 | 126 | 75 | 7:00:00 | 74 | 6:00:00 | 75 | 91 | 6:43:05 | 90 | 6:01:02 | 90 | 0 | 3.4 | 208 | 4 | 73 | 74 | 73 | 73 |
| 05/06/2026 | 8:00:00 | 126 | 76 | 7:23:05 | 75 | 7:01:02 | 75 | 90 | 7:00:01 | 89 | 7:26:00 | 89.5 | 0 | 4.0 | 210 | 9 | 74 | 74 | 73 | 74 |
| 05/06/2026 | 9:00:00 | 126 | 76 | 8:34:02 | 75 | 8:00:01 | 76 | 90 | 8:13:01 | 88 | 8:37:01 | 88.7 | 0 | 2.4 | 209 | 10 | 74 | 74 | 74 | 74 |
| 05/06/2026 | 10:00:00 | 126 | 76 | 9:58:02 | 76 | 9:27:04 | 76 | 92 | 9:58:00 | 89 | 9:04:05 | 91 | 0 | 1.9 | 208 | 8 | 74 | 74 | 74 | 74 |
| 05/06/2026 | 11:00:00 | 126 | 78 | 10:25:05 | 76 | 10:05:01 | 77 | 92 | 10:01:05 | 87 | 10:32:05 | 86.8 | 0 | 3.0 | 210 | 16 | 74 | 75 | 74 | 74 |
| 05/06/2026 | 12:00:00 | 126 | 78 | 11:26:00 | 77 | 11:45:04 | 77 | 91 | 11:57:02 | 86 | 11:30:00 | 91.1 | 0 | 2.3 | 207 | 13 | 75 | 75 | 74 | 74 |
| 05/06/2026 | 13:00:00 | 126 | 80 | 12:48:02 | 77 | 12:02:05 | 78 | 92 | 12:08:05 | 85 | 12:49:02 | 87.2 | 0.01 | 1.6 | 174 | 23 | 75 | 75 | 74 | 75 |
| 05/06/2026 | 14:00:00 | 126 | 78 | 13:59:02 | 76 | 13:17:03 | 78 | 94 | 13:35:04 | 87 | 13:00:00 | 91.5 | 0.09 | 1.7 | 188 | 17 | 76 | 76 | 75 | 75 |
| 05/06/2026 | 15:00:00 | 126 | 79 | 14:59:05 | 78 | 14:28:04 | 79 | 92 | 14:00:05 | 88 | 14:59:00 | 88.7 | 0 | 1.9 | 185 | 21 | 76 | 76 | 75 | 75 |
| 05/06/2026 | 16:00:00 | 126 | 80 | 15:07:00 | 78 | 15:44:05 | 79 | 89 | 15:00:00 | 86 | 15:13:03 | 88 | 0 | 1.8 | 191 | 21 | 76 | 77 | 75 | 76 |
| 05/06/2026 | 17:00:00 | 126 | 79 | 16:01:04 | 77 | 16:58:05 | 77 | 90 | 17:00:00 | 87 | 16:06:03 | 89.7 | 0 | 1.9 | 176 | 10 | 77 | 77 | 76 | 76 |
| 05/06/2026 | 18:00:00 | 126 | 78 | 17:00:01 | 77 | 17:59:05 | 77 | 91 | 17:39:05 | 90 | 17:02:00 | 91.1 | 0 | 1.7 | 165 | 3 | 77 | 77 | 76 | 76 |
| 05/06/2026 | 19:00:00 | 126 | 77 | 18:00:00 | 76 | 18:59:03 | 76 | 93 | 18:59:00 | 91 | 18:02:03 | 92.6 | 0 | 1.8 | 183 | 0 | 77 | 76 | 76 | 76 |
| 05/06/2026 | 20:00:00 | 126 | 77 | 19:49:01 | 76 | 19:00:03 | 77 | 93 | 19:11:00 | 93 | 19:50:03 | 92.5 | 0 | 2.2 | 203 | 0 | 76 | 76 | 76 | 76 |
| 05/06/2026 | 21:00:00 | 126 | 77 | 20:24:05 | 77 | 20:55:01 | 77 | 93 | 20:59:02 | 92 | 20:05:05 | 93.2 | 0 | 2.6 | 211 | 0 | 76 | 76 | 76 | 76 |
| 05/06/2026 | 22:00:00 | 126 | 77 | 21:00:04 | 77 | 21:32:02 | 77 | 94 | 21:58:02 | 93 | 21:01:01 | 93.7 | 0 | 3.8 | 214 | 0 | 76 | 76 | 76 | 75 |
| 05/06/2026 | 23:00:00 | 126 | 77 | 22:02:00 | 76 | 22:42:04 | 76 | 94 | 22:20:02 | 93 | 22:56:04 | 93.4 | 0 | 4.8 | 212 | 0 | 76 | 76 | 75 | 75 |
| 05/07/2026 | 0:00:00 | 127 | 77 | 23:00:03 | 76 | 23:59:05 | 76 | 94 | 23:03:01 | 93 | 23:59:03 | 93.3 | 0 | 4.9 | 219 | 0 | 76 | 76 | 75 | 75 |
| 05/07/2026 | 1:00:00 | 127 | 77 | 0:59:03 | 76 | 0:05:01 | 77 | 93 | 0:00:04 | 93 | 0:59:05 | 92.7 | 0 | 4.8 | 217 | 0 | 76 | 75 | 75 | 75 |
| 05/07/2026 | 2:00:00 | 127 | 77 | 1:46:05 | 76 | 1:00:03 | 77 | 93 | 1:00:03 | 92 | 1:56:01 | 91.9 | 0 | 3.9 | 222 | 0 | 75 | 75 | 75 | 75 |
| 05/07/2026 | 3:00:00 | 127 | 77 | 2:00:03 | 76 | 2:57:04 | 76 | 92 | 2:59:02 | 92 | 2:19:02 | 92.4 | 0 | 4.2 | 220 | 0 | 75 | 75 | 75 | 75 |
| 05/07/2026 | 4:00:00 | 127 | 76 | 3:56:00 | 76 | 3:00:03 | 76 | 93 | 3:03:03 | 92 | 3:58:02 | 91.9 | 0 | 3.7 | 218 | 0 | 75 | 75 | 75 | 75 |
| 05/07/2026 | 5:00:00 | 127 | 77 | 4:12:00 | 76 | 4:52:05 | 76 | 92 | 4:43:03 | 92 | 4:59:03 | 91.5 | 0 | 4.1 | 218 | 0 | 75 | 75 | 75 | 75 |
| 05/07/2026 | 6:00:00 | 127 | 77 | 5:20:01 | 76 | 5:00:01 | 76 | 92 | 5:00:00 | 91 | 5:37:00 | 90.8 | 0 | 4.0 | 221 | 0 | 75 | 75 | 75 | 75 |
| 05/07/2026 | 7:00:00 | 127 | 77 | 6:56:03 | 76 | 6:02:01 | 77 | 91 | 6:17:02 | 90 | 6:59:04 | 89.6 | 0 | 3.9 | 222 | 3 | 75 | 75 | 75 | 75 |
| 05/07/2026 | 8:00:00 | 127 | 77 | 7:35:00 | 76 | 7:56:03 | 76 | 92 | 7:59:05 | 89 | 7:16:05 | 91.6 | 0.01 | 3.8 | 231 | 5 | 75 | 75 | 75 | 75 |
| 05/07/2026 | 9:00:00 | 127 | 76 | 8:00:01 | 73 | 8:41:01 | 73 | 93 | 8:44:01 | 91 | 8:06:03 | 93.1 | 0.03 | 1.9 | 1 | 5 | 75 | 75 | 75 | 75 |
| 05/07/2026 | 10:00:00 | 127 | 73 | 9:24:03 | 72 | 9:55:01 | 73 | 93 | 9:08:04 | 91 | 9:49:00 | 91.5 | 0 | 1.9 | 9 | 10 | 75 | 75 | 75 | 75 |
| 05/07/2026 | 11:00:00 | 127 | 73 | 10:27:01 | 73 | 10:45:04 | 73 | 92 | 10:04:03 | 91 | 10:59:04 | 90.7 | 0.01 | 2.2 | 15 | 12 | 75 | 75 | 75 | 75 |
| 05/07/2026 | 12:00:00 | 127 | 73 | 11:01:00 | 71 | 11:36:00 | 72 | 91 | 11:00:01 | 88 | 11:54:05 | 88.3 | 0 | 3.1 | 22 | 10 | 76 | 75 | 75 | 75 |
| 05/07/2026 | 13:00:00 | 127 | 78 | 12:51:01 | 72 | 12:01:05 | 77 | 89 | 12:09:02 | 78 | 12:58:01 | 79.31 | 0 | 2.1 | 33 | 34 | 76 | 76 | 75 | 75 |
| 05/07/2026 | 14:00:00 | 127 | 80 | 13:48:01 | 77 | 13:05:03 | 79 | 83 | 13:11:02 | 73 | 13:51:02 | 73.69 | 0 | 1.6 | 45 | 40 | 76 | 77 | 76 | 76 |
| 05/07/2026 | 15:00:00 | 127 | 80 | 14:08:03 | 78 | 14:34:02 | 78 | 78 | 14:27:02 | 73 | 14:09:02 | 75.92 | 0 | 2.5 | 18 | 23 | 77 | 78 | 76 | 76 |
| 05/07/2026 | 16:00:00 | 127 | 78 | 15:05:04 | 77 | 15:57:00 | 77 | 79 | 15:59:00 | 75 | 15:04:00 | 78.23 | 0 | 3.0 | 25 | 14 | 78 | 78 | 77 | 77 |
| 05/07/2026 | 17:00:00 | 127 | 77 | 16:24:05 | 76 | 16:48:01 | 76 | 79 | 16:18:00 | 76 | 16:59:05 | 76.46 | 0 | 3.1 | 20 | 9 | 77 | 77 | 77 | 77 |
| 05/07/2026 | 18:00:00 | 127 | 76 | 17:04:05 | 75 | 17:59:01 | 75 | 78 | 18:00:00 | 76 | 17:00:03 | 78.19 | 0 | 2.8 | 21 | 5 | 77 | 77 | 77 | 77 |
| 05/07/2026 | 19:00:00 | 127 | 75 | 18:00:00 | 74 | 18:59:02 | 74 | 80 | 19:00:00 | 78 | 18:02:00 | 79.73 | 0 | 2.5 | 23 | 1 | 77 | 77 | 76 | 76 |
| 05/07/2026 | 20:00:00 | 127 | 74 | 19:00:00 | 73 | 19:38:01 | 73 | 82 | 19:58:02 | 80 | 19:01:01 | 82 | 0 | 1.5 | 28 | 0 | 77 | 76 | 76 | 76 |
| 05/07/2026 | 21:00:00 | 127 | 73 | 20:01:03 | 70 | 20:59:03 | 70 | 85 | 20:26:04 | 82 | 20:02:05 | 82 | 0 | 2.8 | 23 | 0 | 76 | 76 | 76 | 76 |
| 05/07/2026 | 22:00:00 | 127 | 70 | 21:00:01 | 69 | 21:59:00 | 69 | 84 | 21:58:03 | 82 | 21:01:04 | 83.5 | 0 | 3.1 | 22 | 0 | 76 | 76 | 76 | 76 |
| 05/07/2026 | 23:00:00 | 127 | 69 | 22:00:01 | 67 | 22:59:04 | 67 | 86 | 22:59:03 | 83 | 22:01:02 | 85.5 | 0 | 3.3 | 26 | 0 | 75 | 75 | 75 | 75 |
| 05/08/2026 | 0:00:00 | 128 | 68 | 23:01:04 | 66 | 23:59:04 | 66 | 87 | 23:23:01 | 85 | 23:33:03 | 85.9 | 0 | 2.9 | 27 | 0 | 75 | 75 | 75 | 75 |
| 05/08/2026 | 1:00:00 | 128 | 66 | 0:01:00 | 66 | 0:41:05 | 66 | 88 | 0:58:05 | 86 | 0:00:01 | 87.3 | 0 | 2.8 | 23 | 0 | 75 | 74 | 75 | 75 |
| 05/08/2026 | 2:00:00 | 128 | 66 | 1:59:04 | 66 | 1:09:05 | 66 | 88 | 1:43:02 | 87 | 1:58:01 | 87.2 | 0 | 2.2 | 23 | 0 | 74 | 74 | 75 | 75 |
| 05/08/2026 | 3:00:00 | 128 | 66 | 2:40:02 | 66 | 2:01:03 | 66 | 87 | 2:00:01 | 85 | 2:44:04 | 85.3 | 0 | 2.4 | 36 | 0 | 74 | 74 | 74 | 74 |
| 05/08/2026 | 4:00:00 | 128 | 66 | 3:39:00 | 66 | 3:12:03 | 66 | 86 | 3:04:02 | 83 | 3:59:00 | 83.5 | 0 | 2.7 | 33 | 0 | 74 | 74 | 74 | 74 |
| 05/08/2026 | 5:00:00 | 128 | 66 | 4:13:05 | 66 | 4:53:03 | 66 | 84 | 4:49:02 | 83 | 4:02:03 | 83.7 | 0 | 2.6 | 53 | 0 | 74 | 74 | 74 | 74 |
| 05/08/2026 | 6:00:00 | 128 | 66 | 5:02:04 | 65 | 6:00:00 | 65 | 86 | 5:59:05 | 83 | 5:07:05 | 86.2 | 0 | 2.4 | 17 | 0 | 74 | 73 | 74 | 74 |
| 05/08/2026 | 7:00:00 | 128 | 65 | 6:54:02 | 64 | 6:17:03 | 65 | 90 | 6:28:04 | 86 | 6:01:04 | 87.6 | 0 | 2.5 | 57 | 4 | 73 | 73 | 74 | 74 |
| 05/08/2026 | 8:00:00 | 128 | 66 | 8:00:00 | 65 | 7:01:02 | 66 | 88 | 7:02:04 | 84 | 7:54:03 | 84.6 | 0 | 2.9 | 52 | 6 | 73 | 73 | 74 | 74 |
| 05/08/2026 | 9:00:00 | 128 | 67 | 8:59:02 | 66 | 8:01:04 | 67 | 85 | 8:04:04 | 83 | 8:50:03 | 83.2 | 0.01 | 2.7 | 65 | 8 | 73 | 73 | 74 | 74 |
| 05/08/2026 | 10:00:00 | 128 | 70 | 9:47:02 | 67 | 9:00:01 | 69 | 84 | 9:00:05 | 79 | 9:49:01 | 80.7 | 0 | 2.3 | 84 | 12 | 73 | 74 | 74 | 74 |
| 05/08/2026 | 11:00:00 | 128 | 71 | 10:48:03 | 68 | 10:09:05 | 71 | 82 | 10:18:04 | 77 | 10:59:01 | 78.33 | 0 | 1.9 | 77 | 19 | 74 | 74 | 74 | 74 |
| Average | 68.97 | 67.08 | 68 | 79.85 | 74.77 | 77.09 | 0.01 | 2.6 | 14.42 | 72.99 | 72.98 | 73.02 | 73.01 | |||||||
| Total | 2.08 |